Time;durP1;ratioP1;P1;durP2;ratioP2;P2;SDS_P1;SDS_P2;PMS_P1;PMS_P2;Temp;Humidity;BMP_temperature;BMP_pressure;BME280_temperature;BME280_humidity;BME280_pressure;Samples;Min_cycle;Max_cycle;Signal;HPM_P1;HPM_P2
2021/09/07 00:01:58;;;;;;;3.90;2.92;;;;;;;;;;5030561;28;20027;-59
2021/09/07 00:04:29;;;;;;;5.85;3.03;;;;;;;;;;5030028;28;20033;-59
2021/09/07 00:06:56;;;;;;;4.15;2.83;;;;;;;;;;5031390;28;20033;-59
2021/09/07 00:09:21;;;;;;;4.97;3.90;;;;;;;;;;5030632;28;20053;-59
2021/09/07 00:11:46;;;;;;;4.25;3.25;;;;;;;;;;5036804;28;20061;-59
2021/09/07 00:14:12;;;;;;;4.88;3.63;;;;;;;;;;5030991;28;20029;-59
2021/09/07 00:16:37;;;;;;;5.32;3.70;;;;;;;;;;5031498;28;20457;-59
2021/09/07 00:19:03;;;;;;;3.95;2.80;;;;;;;;;;5030791;28;20091;-59
2021/09/07 00:21:28;;;;;;;5.07;3.47;;;;;;;;;;5030862;28;20033;-59
2021/09/07 00:23:53;;;;;;;4.93;3.13;;;;;;;;;;5031561;28;20034;-59
2021/09/07 00:26:19;;;;;;;6.95;3.28;;;;;;;;;;5030909;28;20045;-59
2021/09/07 00:28:44;;;;;;;4.00;2.90;;;;;;;;;;5030977;28;20455;-59
2021/09/07 00:31:09;;;;;;;4.40;3.58;;;;;;;;;;5031156;28;20025;-59
2021/09/07 00:33:35;;;;;;;4.53;3.45;;;;;;;;;;5029450;28;20399;-58
2021/09/07 00:36:00;;;;;;;4.65;2.75;;;;;;;;;;5028810;28;20392;-59
2021/09/07 00:38:26;;;;;;;4.25;3.15;;;;;;;;;;5030846;28;20029;-58
2021/09/07 00:40:51;;;;;;;5.75;3.60;;;;;;;;;;5031329;28;20029;-58
2021/09/07 00:43:16;;;;;;;3.72;3.22;;;;;;;;;;5034623;28;20593;-59
2021/09/07 00:45:44;;;;;;;5.45;3.25;;;;;;;;;;5030764;28;20037;-58
2021/09/07 00:48:09;;;;;;;4.13;3.03;;;;;;;;;;5030627;28;20049;-58
2021/09/07 00:50:34;;;;;;;4.03;3.20;;;;;;;;;;5030539;28;20025;-59
2021/09/07 00:53:00;;;;;;;5.30;3.30;;;;;;;;;;5029928;28;20033;-58
2021/09/07 00:55:26;;;;;;;6.22;4.22;;;;;;;;;;5030837;28;20094;-58
2021/09/07 00:57:55;;;;;;;5.28;3.05;;;;;;;;;;5030167;28;20029;-59
2021/09/07 01:00:21;;;;;;;4.07;3.00;;;;;;;;;;5045566;28;20044;-59
2021/09/07 01:02:46;;;;;;;7.45;2.97;;;;;;;;;;5045868;28;20022;-59
2021/09/07 01:05:13;;;;;;;7.00;3.92;;;;;;;;;;5031756;28;20467;-59
2021/09/07 01:07:38;;;;;;;5.00;3.03;;;;;;;;;;5030516;28;20074;-59
2021/09/07 01:10:06;;;;;;;4.65;3.08;;;;;;;;;;5029434;28;20114;-58
2021/09/07 01:12:32;;;;;;;4.93;3.55;;;;;;;;;;5029557;28;20057;-59
2021/09/07 01:14:57;;;;;;;6.03;3.47;;;;;;;;;;5030052;28;20481;-58
2021/09/07 01:17:23;;;;;;;8.90;3.97;;;;;;;;;;5030000;28;20029;-59
2021/09/07 01:19:51;;;;;;;6.32;4.00;;;;;;;;;;5019056;28;20391;-59
2021/09/07 01:22:19;;;;;;;21.60;5.10;;;;;;;;;;5035315;28;20462;-59
2021/09/07 01:24:45;;;;;;;4.18;2.88;;;;;;;;;;5030315;28;20356;-59
2021/09/07 01:27:11;;;;;;;6.28;3.88;;;;;;;;;;5029492;28;20109;-58
2021/09/07 01:29:40;;;;;;;6.00;3.15;;;;;;;;;;5029105;28;20183;-57
2021/09/07 01:32:08;;;;;;;5.22;3.85;;;;;;;;;;5028707;28;20029;-57
2021/09/07 01:34:34;;;;;;;4.38;3.22;;;;;;;;;;5029209;28;20528;-58
2021/09/07 01:37:00;;;;;;;6.20;3.42;;;;;;;;;;5029426;28;20355;-58
2021/09/07 01:39:26;;;;;;;5.32;4.53;;;;;;;;;;5029804;28;20112;-59
2021/09/07 01:41:52;;;;;;;4.00;3.20;;;;;;;;;;5032168;28;20041;-59
2021/09/07 01:44:19;;;;;;;5.10;3.17;;;;;;;;;;5029717;28;20344;-60
2021/09/07 01:46:44;;;;;;;5.35;3.45;;;;;;;;;;5028959;28;20091;-60
2021/09/07 01:49:11;;;;;;;5.60;4.20;;;;;;;;;;5029603;28;20486;-57
2021/09/07 01:51:41;;;;;;;7.00;4.95;;;;;;;;;;5029576;28;20363;-58
2021/09/07 01:54:08;;;;;;;6.40;3.60;;;;;;;;;;5027838;28;20048;-58
2021/09/07 01:56:34;;;;;;;5.50;2.90;;;;;;;;;;5029460;28;20120;-57
2021/09/07 01:59:00;;;;;;;5.80;4.43;;;;;;;;;;5027249;28;20344;-57
2021/09/07 02:01:26;;;;;;;5.93;3.67;;;;;;;;;;5029468;28;20033;-57
2021/09/07 02:03:51;;;;;;;5.18;3.55;;;;;;;;;;5028586;28;20087;-57
2021/09/07 02:06:17;;;;;;;4.28;3.08;;;;;;;;;;5028484;28;20025;-57
2021/09/07 02:08:42;;;;;;;7.57;3.88;;;;;;;;;;5029363;28;20091;-57
2021/09/07 02:11:08;;;;;;;6.20;3.47;;;;;;;;;;5029496;28;20044;-57
2021/09/07 02:13:33;;;;;;;4.45;2.90;;;;;;;;;;5028838;28;20044;-57
2021/09/07 02:15:59;;;;;;;4.63;2.90;;;;;;;;;;5029029;28;20120;-57
2021/09/07 02:18:24;;;;;;;5.93;4.00;;;;;;;;;;5044392;28;20354;-57
2021/09/07 02:20:49;;;;;;;5.47;3.20;;;;;;;;;;5028408;28;20036;-57
2021/09/07 02:23:15;;;;;;;6.18;4.50;;;;;;;;;;5044064;28;20433;-57
2021/09/07 02:25:40;;;;;;;5.22;3.65;;;;;;;;;;5029034;28;20037;-57
2021/09/07 02:28:06;;;;;;;7.93;4.43;;;;;;;;;;5028150;28;20053;-58
2021/09/07 02:30:31;;;;;;;4.95;3.40;;;;;;;;;;5028451;28;20030;-57
2021/09/07 02:32:59;;;;;;;4.50;3.40;;;;;;;;;;5028929;28;20033;-58
2021/09/07 02:35:24;;;;;;;12.70;3.95;;;;;;;;;;5028465;28;20037;-58
2021/09/07 02:37:49;;;;;;;6.75;3.42;;;;;;;;;;5027637;28;20034;-57
2021/09/07 02:40:15;;;;;;;8.93;4.05;;;;;;;;;;5028710;28;20026;-58
2021/09/07 02:42:40;;;;;;;7.82;4.50;;;;;;;;;;5028960;28;20037;-57
2021/09/07 02:45:06;;;;;;;5.90;3.65;;;;;;;;;;5027147;28;20033;-59
2021/09/07 02:47:31;;;;;;;6.57;5.20;;;;;;;;;;5022961;28;20331;-58
2021/09/07 02:49:57;;;;;;;4.60;3.20;;;;;;;;;;5028035;28;20025;-59
2021/09/07 02:52:22;;;;;;;5.70;3.92;;;;;;;;;;5028086;28;20063;-58
2021/09/07 02:54:48;;;;;;;4.80;3.63;;;;;;;;;;5028797;28;20033;-59
2021/09/07 02:57:13;;;;;;;4.20;3.40;;;;;;;;;;5026524;28;20059;-59
2021/09/07 02:59:38;;;;;;;6.15;4.63;;;;;;;;;;5028834;28;20033;-59
2021/09/07 03:02:04;;;;;;;5.18;3.90;;;;;;;;;;5028519;28;20521;-59
2021/09/07 03:04:29;;;;;;;8.23;3.75;;;;;;;;;;5028284;28;20025;-59
2021/09/07 03:06:55;;;;;;;4.15;3.65;;;;;;;;;;5027723;28;20038;-59
2021/09/07 03:09:20;;;;;;;5.05;3.72;;;;;;;;;;5027987;28;20110;-59
2021/09/07 03:11:46;;;;;;;7.18;4.22;;;;;;;;;;5030277;28;20044;-58
2021/09/07 03:14:11;;;;;;;3.88;2.75;;;;;;;;;;5032230;28;20048;-59
2021/09/07 03:16:36;;;;;;;5.28;3.75;;;;;;;;;;5031047;28;20044;-58
2021/09/07 03:19:03;;;;;;;4.82;3.90;;;;;;;;;;5032120;28;20128;-59
2021/09/07 03:21:29;;;;;;;10.70;4.40;;;;;;;;;;5031605;28;20029;-58
2021/09/07 03:23:54;;;;;;;4.38;3.30;;;;;;;;;;5030599;28;20362;-59
2021/09/07 03:26:20;;;;;;;6.15;3.33;;;;;;;;;;5029710;28;20037;-59
2021/09/07 03:28:46;;;;;;;4.88;3.17;;;;;;;;;;5032199;28;20036;-59
2021/09/07 03:31:11;;;;;;;6.35;3.97;;;;;;;;;;5032452;28;20071;-59
2021/09/07 03:33:36;;;;;;;4.68;3.35;;;;;;;;;;5031549;28;20022;-58
2021/09/07 03:36:02;;;;;;;5.75;3.13;;;;;;;;;;5031750;28;20382;-58
2021/09/07 03:38:28;;;;;;;4.63;3.25;;;;;;;;;;5030508;28;20057;-60
2021/09/07 03:40:53;;;;;;;5.03;3.85;;;;;;;;;;5032037;28;20403;-58
2021/09/07 03:43:19;;;;;;;8.98;4.65;;;;;;;;;;5046456;28;20052;-59
2021/09/07 03:45:44;;;;;;;6.85;4.00;;;;;;;;;;5031934;28;20031;-60
2021/09/07 03:48:09;;;;;;;6.25;4.03;;;;;;;;;;5031849;28;20021;-57
2021/09/07 03:50:35;;;;;;;4.25;3.10;;;;;;;;;;5030763;28;20025;-57
2021/09/07 03:53:00;;;;;;;6.53;3.17;;;;;;;;;;5032149;28;20084;-59
2021/09/07 03:55:26;;;;;;;4.25;2.88;;;;;;;;;;5031960;28;20443;-59
2021/09/07 03:57:51;;;;;;;5.45;3.28;;;;;;;;;;5031841;28;20029;-59
2021/09/07 04:00:18;;;;;;;5.40;3.45;;;;;;;;;;5029354;28;20111;-60
2021/09/07 04:02:44;;;;;;;4.32;3.22;;;;;;;;;;5030881;28;20033;-59
2021/09/07 04:05:09;;;;;;;4.28;2.65;;;;;;;;;;5031247;28;20331;-59
2021/09/07 04:07:35;;;;;;;5.75;3.85;;;;;;;;;;5031768;28;20098;-59
2021/09/07 04:10:00;;;;;;;5.10;3.55;;;;;;;;;;5031157;28;20047;-59
2021/09/07 04:12:26;;;;;;;4.90;3.20;;;;;;;;;;5032210;28;20041;-59
2021/09/07 04:14:51;;;;;;;5.50;3.38;;;;;;;;;;5031444;28;20029;-59
2021/09/07 04:17:17;;;;;;;5.80;3.63;;;;;;;;;;5030397;28;20045;-58
2021/09/07 04:19:43;;;;;;;5.88;3.60;;;;;;;;;;5028813;28;20029;-59
2021/09/07 04:22:08;;;;;;;4.15;2.85;;;;;;;;;;5028618;28;20033;-59
2021/09/07 04:24:34;;;;;;;5.45;4.00;;;;;;;;;;5030032;28;20455;-59
2021/09/07 04:26:59;;;;;;;4.40;2.92;;;;;;;;;;5029782;28;20083;-59
2021/09/07 04:29:24;;;;;;;5.68;3.47;;;;;;;;;;5027087;28;20470;-59
2021/09/07 04:31:50;;;;;;;5.22;3.63;;;;;;;;;;5030691;28;20037;-59
2021/09/07 04:34:15;;;;;;;8.02;3.88;;;;;;;;;;5029977;28;20040;-59
2021/09/07 04:36:41;;;;;;;4.20;3.03;;;;;;;;;;5029355;28;20139;-59
2021/09/07 04:39:06;;;;;;;4.15;3.20;;;;;;;;;;5030987;28;20029;-59
2021/09/07 04:41:31;;;;;;;7.18;4.97;;;;;;;;;;5030197;28;20044;-59
2021/09/07 04:43:57;;;;;;;4.97;3.67;;;;;;;;;;5030490;28;20715;-62
2021/09/07 04:46:23;;;;;;;7.10;3.90;;;;;;;;;;5029515;28;20105;-59
2021/09/07 04:48:54;;;;;;;9.05;4.32;;;;;;;;;;5030779;28;20126;-59
2021/09/07 04:51:19;;;;;;;;;;;;;;;;;;5030618;28;20045;-58
2021/09/07 04:53:45;;;;;;;3.42;2.15;;;;;;;;;;5030413;28;20304;-59
2021/09/07 04:56:10;;;;;;;3.33;2.63;;;;;;;;;;5033672;28;20569;-59
2021/09/07 04:58:35;;;;;;;4.95;3.92;;;;;;;;;;5029544;28;20095;-59
2021/09/07 05:01:01;;;;;;;3.90;2.78;;;;;;;;;;5029213;28;20121;-59
2021/09/07 05:03:26;;;;;;;8.23;3.70;;;;;;;;;;5029680;28;20029;-59
2021/09/07 05:05:52;;;;;;;5.85;3.20;;;;;;;;;;5025951;28;20107;-59
2021/09/07 05:08:17;;;;;;;5.47;3.95;;;;;;;;;;5029236;28;20044;-59
2021/09/07 05:10:42;;;;;;;5.28;3.15;;;;;;;;;;5029946;28;20363;-58
2021/09/07 05:13:08;;;;;;;3.30;2.38;;;;;;;;;;5031054;28;20521;-58
2021/09/07 05:15:33;;;;;;;5.03;3.10;;;;;;;;;;5029062;28;20040;-58
2021/09/07 05:17:59;;;;;;;3.95;2.75;;;;;;;;;;5029217;28;20081;-59
2021/09/07 05:20:24;;;;;;;3.97;2.65;;;;;;;;;;5028737;28;20033;-58
2021/09/07 05:22:49;;;;;;;4.88;3.25;;;;;;;;;;5029970;28;20031;-58
2021/09/07 05:25:15;;;;;;;6.10;4.20;;;;;;;;;;5028616;28;20056;-58
2021/09/07 05:27:40;;;;;;;6.63;3.55;;;;;;;;;;5021713;28;20061;-58
2021/09/07 05:30:08;;;;;;;5.07;3.20;;;;;;;;;;5026472;28;20040;-58
2021/09/07 05:32:34;;;;;;;4.82;3.25;;;;;;;;;;5028987;28;20041;-58
2021/09/07 05:35:00;;;;;;;7.20;3.58;;;;;;;;;;5026029;28;20029;-58
2021/09/07 05:37:25;;;;;;;5.03;3.58;;;;;;;;;;5025592;28;20710;-64
2021/09/07 05:39:51;;;;;;;7.68;4.13;;;;;;;;;;5026471;28;20029;-59
2021/09/07 05:42:16;;;;;;;9.80;4.57;;;;;;;;;;5031671;28;20136;-58
2021/09/07 05:44:41;;;;;;;7.25;3.58;;;;;;;;;;5027519;28;20427;-58
2021/09/07 05:47:07;;;;;;;3.90;2.90;;;;;;;;;;5022666;28;20037;-58
2021/09/07 05:49:32;;;;;;;9.48;3.70;;;;;;;;;;5027649;28;20064;-58
2021/09/07 05:51:58;;;;;;;6.32;3.33;;;;;;;;;;5027486;28;20117;-58
2021/09/07 05:54:24;;;;;;;5.57;3.40;;;;;;;;;;5029059;28;20122;-59
2021/09/07 05:56:49;;;;;;;9.05;3.55;;;;;;;;;;5029444;28;20148;-58
2021/09/07 05:59:16;;;;;;;4.13;2.65;;;;;;;;;;5027572;28;20107;-58
2021/09/07 06:01:42;;;;;;;5.70;3.85;;;;;;;;;;5029493;28;20395;-58
2021/09/07 06:04:08;;;;;;;6.10;4.50;;;;;;;;;;5044587;28;20068;-58
2021/09/07 06:06:33;;;;;;;4.95;3.30;;;;;;;;;;5011283;28;20180;-58
2021/09/07 06:08:59;;;;;;;7.80;4.35;;;;;;;;;;5028327;28;20044;-59
2021/09/07 06:11:24;;;;;;;6.07;4.22;;;;;;;;;;5028795;28;20070;-58
2021/09/07 06:13:50;;;;;;;5.68;4.28;;;;;;;;;;5028238;28;20087;-58
2021/09/07 06:16:15;;;;;;;6.82;3.97;;;;;;;;;;5027501;28;20037;-59
2021/09/07 06:18:41;;;;;;;7.65;4.07;;;;;;;;;;5028757;28;20104;-58
2021/09/07 06:21:06;;;;;;;5.97;4.38;;;;;;;;;;5028396;28;20358;-58
2021/09/07 06:23:32;;;;;;;9.73;5.05;;;;;;;;;;5028493;28;20040;-58
2021/09/07 06:25:58;;;;;;;6.20;3.83;;;;;;;;;;5023888;28;20366;-58
2021/09/07 06:28:25;;;;;;;5.22;4.15;;;;;;;;;;5025546;28;20041;-58
2021/09/07 06:30:51;;;;;;;7.75;4.90;;;;;;;;;;5029862;28;20095;-57
2021/09/07 06:33:16;;;;;;;5.70;4.75;;;;;;;;;;5024166;28;20120;-58
2021/09/07 06:35:41;;;;;;;5.20;3.80;;;;;;;;;;5025806;28;20405;-59
2021/09/07 06:38:07;;;;;;;5.07;3.90;;;;;;;;;;5024263;28;20033;-58
2021/09/07 06:40:32;;;;;;;5.55;3.88;;;;;;;;;;5025503;28;20045;-58
2021/09/07 06:42:58;;;;;;;8.57;5.32;;;;;;;;;;5028698;28;20462;-58
2021/09/07 06:45:23;;;;;;;6.57;4.68;;;;;;;;;;5026285;28;20120;-58
2021/09/07 06:47:49;;;;;;;5.97;3.83;;;;;;;;;;5029004;28;20029;-58
2021/09/07 06:50:14;;;;;;;9.77;5.05;;;;;;;;;;5031199;28;20029;-59
2021/09/07 06:52:40;;;;;;;6.63;4.15;;;;;;;;;;5030268;28;20358;-58
2021/09/07 06:55:06;;;;;;;8.45;4.82;;;;;;;;;;5029596;28;20116;-58
2021/09/07 06:57:31;;;;;;;5.47;4.10;;;;;;;;;;5030331;28;20036;-59
2021/09/07 06:59:57;;;;;;;6.50;4.60;;;;;;;;;;5027308;28;20112;-58
2021/09/07 07:02:22;;;;;;;7.63;4.57;;;;;;;;;;5027150;28;20036;-58
2021/09/07 07:04:48;;;;;;;7.13;4.85;;;;;;;;;;5030740;28;20037;-58
2021/09/07 07:07:14;;;;;;;7.97;4.85;;;;;;;;;;5027086;28;20041;-58
2021/09/07 07:09:39;;;;;;;4.85;3.72;;;;;;;;;;5029407;28;20307;-58
2021/09/07 07:12:05;;;;;;;6.57;4.20;;;;;;;;;;5027134;28;20046;-58
2021/09/07 07:14:30;;;;;;;5.93;4.18;;;;;;;;;;5028020;28;20038;-58
2021/09/07 07:16:56;;;;;;;7.47;4.75;;;;;;;;;;5026376;28;20439;-59
2021/09/07 07:19:21;;;;;;;5.05;3.75;;;;;;;;;;5026433;28;20030;-58
2021/09/07 07:21:48;;;;;;;5.80;4.45;;;;;;;;;;5026205;28;20372;-58
2021/09/07 07:24:17;;;;;;;6.75;4.28;;;;;;;;;;5026858;28;20037;-58
2021/09/07 07:26:45;;;;;;;6.78;3.83;;;;;;;;;;5030050;28;20045;-58
2021/09/07 07:29:12;;;;;;;7.35;4.75;;;;;;;;;;5027926;28;20037;-58
2021/09/07 07:31:38;;;;;;;7.10;4.45;;;;;;;;;;5029657;28;20442;-58
2021/09/07 07:34:04;;;;;;;6.95;4.55;;;;;;;;;;5029559;28;20025;-58
2021/09/07 07:36:29;;;;;;;6.00;4.38;;;;;;;;;;5028987;28;20083;-59
2021/09/07 07:38:54;;;;;;;7.68;5.00;;;;;;;;;;5028424;28;20037;-58
2021/09/07 07:41:20;;;;;;;9.65;5.07;;;;;;;;;;5030535;28;20105;-58
2021/09/07 07:43:46;;;;;;;6.78;4.30;;;;;;;;;;5029348;28;20040;-58
2021/09/07 07:46:16;;;;;;;7.30;5.22;;;;;;;;;;5028510;28;20065;-58
2021/09/07 07:48:41;;;;;;;14.52;5.95;;;;;;;;;;5029696;28;20025;-58
2021/09/07 07:51:08;;;;;;;4.38;3.17;;;;;;;;;;5031935;28;20022;-58
2021/09/07 07:53:35;;;;;;;8.73;4.93;;;;;;;;;;5031321;28;20040;-58
2021/09/07 07:56:00;;;;;;;5.90;4.03;;;;;;;;;;5031019;28;20029;-58
2021/09/07 07:58:26;;;;;;;6.18;4.70;;;;;;;;;;5030593;28;20025;-58
2021/09/07 08:00:51;;;;;;;5.72;4.30;;;;;;;;;;5030969;28;20117;-58
2021/09/07 08:03:16;;;;;;;6.22;3.28;;;;;;;;;;5031326;28;20048;-58
2021/09/07 08:05:42;;;;;;;11.90;4.32;;;;;;;;;;5027405;28;20553;-58
2021/09/07 08:08:07;;;;;;;7.78;4.95;;;;;;;;;;5031266;28;20041;-58
2021/09/07 08:10:34;;;;;;;5.60;3.78;;;;;;;;;;5031046;28;20036;-58
2021/09/07 08:13:00;;;;;;;4.45;3.67;;;;;;;;;;5031096;28;20037;-58
2021/09/07 08:15:25;;;;;;;5.40;4.30;;;;;;;;;;5030391;28;20045;-58
2021/09/07 08:17:51;;;;;;;7.03;4.93;;;;;;;;;;5031139;28;20037;-58
2021/09/07 08:20:16;;;;;;;5.70;4.10;;;;;;;;;;5029470;28;20112;-58
2021/09/07 08:22:42;;;;;;;10.07;4.75;;;;;;;;;;5030101;28;20025;-59
2021/09/07 08:25:09;;;;;;;13.15;4.43;;;;;;;;;;5030684;28;20041;-58
2021/09/07 08:27:34;;;;;;;6.28;4.25;;;;;;;;;;5029753;28;20374;-58
2021/09/07 08:30:00;;;;;;;7.60;4.78;;;;;;;;;;5044976;28;20026;-58
2021/09/07 08:32:25;;;;;;;13.70;5.20;;;;;;;;;;5030752;28;20056;-58
2021/09/07 08:34:50;;;;;;;4.07;3.20;;;;;;;;;;5034135;28;20025;-58
2021/09/07 08:37:16;;;;;;;10.27;4.63;;;;;;;;;;5029849;28;20037;-59
2021/09/07 08:39:41;;;;;;;8.80;5.88;;;;;;;;;;5030414;28;20478;-58
2021/09/07 08:42:11;;;;;;;5.60;4.25;;;;;;;;;;5027111;28;20033;-59
2021/09/07 08:44:38;;;;;;;6.90;4.90;;;;;;;;;;5027230;28;20029;-58
2021/09/07 08:47:03;;;;;;;6.30;4.65;;;;;;;;;;5029013;28;20033;-59
2021/09/07 08:49:28;;;;;;;5.95;4.20;;;;;;;;;;5026723;28;20500;-59
2021/09/07 08:51:54;;;;;;;5.80;4.10;;;;;;;;;;5027957;28;20037;-59
2021/09/07 08:54:19;;;;;;;7.68;4.32;;;;;;;;;;5025015;28;20087;-59
2021/09/07 08:56:45;;;;;;;7.68;6.13;;;;;;;;;;5025113;28;20029;-59
2021/09/07 08:59:12;;;;;;;4.45;3.25;;;;;;;;;;5025036;28;20500;-59
2021/09/07 09:01:42;;;;;;;7.85;4.47;;;;;;;;;;5029179;28;20120;-59
2021/09/07 09:04:27;;;;;;;5.97;4.23;;;;;;;;;;5024858;28;20045;-59
2021/09/07 09:06:53;;;;;;;5.85;4.30;;;;;;;;;;5025166;28;20175;-59
2021/09/07 09:09:18;;;;;;;4.65;3.50;;;;;;;;;;5028820;28;20124;-59
2021/09/07 09:11:55;;;;;;;6.50;4.07;;;;;;;;;;5031467;28;20048;-59
2021/09/07 09:14:41;;;;;;;6.28;4.22;;;;;;;;;;5027826;28;20121;-57
2021/09/07 09:17:19;;;;;;;7.55;3.60;;;;;;;;;;5025279;28;20537;-56
2021/09/07 09:20:04;;;;;;;8.45;4.82;;;;;;;;;;5027065;28;20060;-56
2021/09/07 09:22:42;;;;;;;8.80;4.82;;;;;;;;;;5026716;28;20037;-56
2021/09/07 09:25:28;;;;;;;7.35;5.13;;;;;;;;;;5028132;28;20029;-56
2021/09/07 09:27:56;;;;;;;6.47;3.75;;;;;;;;;;5026387;28;20136;-56
2021/09/07 09:30:44;;;;;;;8.32;4.80;;;;;;;;;;5024504;28;20087;-56
2021/09/07 09:33:12;;;;;;;5.43;4.22;;;;;;;;;;5028978;28;20385;-56
2021/09/07 09:35:59;;;;;;;6.00;4.22;;;;;;;;;;5029435;28;20071;-56
2021/09/07 09:38:33;;;;;;;7.85;5.15;;;;;;;;;;5043759;28;20136;-56
2021/09/07 09:41:01;;;;;;;5.53;4.55;;;;;;;;;;5027029;28;20478;-57
2021/09/07 09:43:38;;;;;;;5.78;4.88;;;;;;;;;;5029304;28;20037;-57
2021/09/07 09:46:24;;;;;;;5.45;4.50;;;;;;;;;;5027656;28;20017;-57
2021/09/07 09:48:50;;;;;;;5.45;4.35;;;;;;;;;;5024223;28;20107;-58
2021/09/07 09:51:18;;;;;;;7.25;5.70;;;;;;;;;;5023986;28;20029;-57
2021/09/07 09:53:46;;;;;;;6.80;5.18;;;;;;;;;;5024647;28;20433;-57
2021/09/07 09:56:13;;;;;;;6.28;5.22;;;;;;;;;;5026345;28;20485;-57
2021/09/07 09:58:39;;;;;;;5.75;4.07;;;;;;;;;;5028124;28;20041;-57
2021/09/07 10:01:05;;;;;;;7.68;5.38;;;;;;;;;;5026684;28;20390;-57
2021/09/07 10:03:32;;;;;;;5.10;4.25;;;;;;;;;;5027169;28;20037;-57
2021/09/07 10:05:58;;;;;;;7.18;4.40;;;;;;;;;;5029045;28;20037;-57
2021/09/07 10:08:23;;;;;;;3.88;3.47;;;;;;;;;;5027199;28;20389;-57
2021/09/07 10:11:00;;;;;;;6.57;4.72;;;;;;;;;;5026370;28;20155;-57
2021/09/07 10:13:28;;;;;;;6.63;4.95;;;;;;;;;;5024158;28;20112;-58
2021/09/07 10:16:00;;;;;;;7.45;5.03;;;;;;;;;;5028137;28;20025;-58
2021/09/07 10:18:42;;;;;;;5.53;4.50;;;;;;;;;;5026306;28;20065;-58
2021/09/07 10:21:15;;;;;;;6.53;4.82;;;;;;;;;;5026640;28;20044;-58
2021/09/07 10:23:54;;;;;;;5.35;4.55;;;;;;;;;;5023810;28;20041;-58
2021/09/07 10:26:40;;;;;;;8.55;5.80;;;;;;;;;;5026129;28;20048;-58
2021/09/07 10:29:06;;;;;;;5.38;4.88;;;;;;;;;;5023622;28;20038;-58
2021/09/07 10:31:50;;;;;;;5.07;4.07;;;;;;;;;;5023642;28;20144;-58
2021/09/07 10:34:17;;;;;;;6.38;5.50;;;;;;;;;;5024838;28;20026;-58
2021/09/07 10:36:57;;;;;;;5.28;4.78;;;;;;;;;;5027117;28;20033;-58
2021/09/07 10:39:37;;;;;;;7.18;5.60;;;;;;;;;;5027422;28;20128;-58
2021/09/07 10:42:08;;;;;;;7.65;6.95;;;;;;;;;;5041205;28;20061;-58
2021/09/07 10:44:38;;;;;;;8.15;7.13;;;;;;;;;;5024403;28;20353;-59
2021/09/07 10:47:17;;;;;;;5.78;4.60;;;;;;;;;;5026248;28;20033;-57
2021/09/07 10:49:44;;;;;;;6.15;5.55;;;;;;;;;;5023461;28;20029;-57
2021/09/07 10:52:30;;;;;;;8.25;6.10;;;;;;;;;;5027945;28;20032;-58
2021/09/07 10:55:06;;;;;;;6.13;5.53;;;;;;;;;;5026216;28;20056;-57
2021/09/07 10:57:31;;;;;;;5.03;4.63;;;;;;;;;;5027119;28;20061;-57
2021/09/07 10:59:58;;;;;;;5.97;5.05;;;;;;;;;;5026779;28;20053;-57
2021/09/07 11:02:34;;;;;;;5.88;5.22;;;;;;;;;;5026120;28;20045;-58
2021/09/07 11:05:04;;;;;;;10.60;5.82;;;;;;;;;;5025806;28;20025;-58
2021/09/07 11:07:40;;;;;;;6.50;5.90;;;;;;;;;;5027127;28;20073;-57
2021/09/07 11:10:18;;;;;;;6.40;5.68;;;;;;;;;;5027105;28;20044;-57
2021/09/07 11:12:54;;;;;;;9.43;5.07;;;;;;;;;;5027458;28;20419;-58
2021/09/07 11:15:24;;;;;;;5.82;5.25;;;;;;;;;;5027293;28;20121;-58
2021/09/07 11:17:51;;;;;;;;;;;;;;;;;;5024980;28;20096;-58
2021/09/07 11:20:18;;;;;;;7.05;6.10;;;;;;;;;;5023819;28;19912;-58
2021/09/07 11:22:44;;;;;;;5.43;4.93;;;;;;;;;;5026752;28;20029;-58
2021/09/07 11:25:13;;;;;;;5.53;4.13;;;;;;;;;;5027199;28;20033;-58
2021/09/07 11:27:47;;;;;;;7.07;6.38;;;;;;;;;;5027210;28;20087;-58
2021/09/07 11:30:32;;;;;;;5.80;4.75;;;;;;;;;;5027000;28;20053;-58
2021/09/07 11:33:04;;;;;;;5.88;5.28;;;;;;;;;;5029635;28;20033;-57
2021/09/07 11:35:57;;;;;;;4.40;4.00;;;;;;;;;;5022828;28;20123;-57
2021/09/07 11:38:34;;;;;;;7.38;5.85;;;;;;;;;;5028955;28;20063;-57
2021/09/07 11:41:14;;;;;;;6.47;5.88;;;;;;;;;;5033235;28;20040;-57
2021/09/07 11:43:47;;;;;;;7.82;7.00;;;;;;;;;;5031255;28;20130;-58
2021/09/07 11:46:13;;;;;;;5.90;5.32;;;;;;;;;;5032412;28;20429;-57
2021/09/07 11:48:41;;;;;;;7.18;6.47;;;;;;;;;;5031553;28;20033;-57
2021/09/07 11:51:08;;;;;;;6.32;5.72;;;;;;;;;;5030421;28;20065;-58
2021/09/07 11:53:33;;;;;;;8.35;7.55;;;;;;;;;;5028925;28;20045;-58
2021/09/07 11:55:59;;;;;;;5.68;5.10;;;;;;;;;;5029706;28;20124;-58
2021/09/07 11:58:26;;;;;;;8.43;5.78;;;;;;;;;;5030383;28;20033;-58
2021/09/07 12:01:28;;;;;;;6.55;5.60;;;;;;;;;;5029741;28;20036;-58
2021/09/07 12:03:59;;;;;;;5.78;5.18;;;;;;;;;;5021931;28;20170;-57
2021/09/07 12:06:33;;;;;;;4.60;4.13;;;;;;;;;;5030415;28;20033;-58
2021/09/07 12:09:31;;;;;;;6.05;5.45;;;;;;;;;;5029888;28;20049;-58
2021/09/07 12:12:00;;;;;;;5.57;4.97;;;;;;;;;;4997281;28;20123;-58
2021/09/07 12:14:25;;;;;;;6.38;5.22;;;;;;;;;;5029530;28;20112;-58
2021/09/07 12:16:58;;;;;;;6.47;5.57;;;;;;;;;;5012361;28;20120;-57
2021/09/07 12:19:29;;;;;;;6.80;6.10;;;;;;;;;;5025255;28;20538;-57
2021/09/07 12:22:20;;;;;;;5.60;5.07;;;;;;;;;;5030084;28;20052;-58
2021/09/07 12:25:06;;;;;;;5.40;4.90;;;;;;;;;;5028965;28;20061;-58
2021/09/07 12:27:45;;;;;;;5.35;4.88;;;;;;;;;;5027858;28;20395;-57
2021/09/07 12:30:16;;;;;;;5.38;4.88;;;;;;;;;;5027129;28;20068;-57
2021/09/07 12:32:53;;;;;;;7.57;6.18;;;;;;;;;;5024773;28;20500;-58
2021/09/07 12:35:28;;;;;;;8.30;5.65;;;;;;;;;;5029942;28;20045;-58
2021/09/07 12:37:53;;;;;;;5.25;4.75;;;;;;;;;;5025998;28;20029;-58
2021/09/07 12:40:19;;;;;;;5.65;4.72;;;;;;;;;;5028814;28;20033;-58
2021/09/07 12:42:44;;;;;;;6.05;5.50;;;;;;;;;;5012175;28;20029;-59
2021/09/07 12:45:10;;;;;;;6.13;4.97;;;;;;;;;;5026052;28;20044;-57
2021/09/07 12:47:35;;;;;;;7.93;5.40;;;;;;;;;;5026690;28;20101;-57
2021/09/07 12:50:01;;;;;;;6.93;6.28;;;;;;;;;;5029289;28;20038;-57
2021/09/07 12:52:26;;;;;;;9.50;6.28;;;;;;;;;;5029809;28;20033;-57
2021/09/07 12:54:52;;;;;;;6.82;6.22;;;;;;;;;;5030615;28;20029;-57
2021/09/07 12:57:18;;;;;;;7.40;6.38;;;;;;;;;;5030982;28;20052;-58
2021/09/07 12:59:44;;;;;;;4.85;4.38;;;;;;;;;;5006396;28;20471;-58
2021/09/07 13:02:10;;;;;;;6.13;5.63;;;;;;;;;;5025145;28;20033;-58
2021/09/07 13:04:36;;;;;;;6.13;5.60;;;;;;;;;;5028286;28;20496;-58
2021/09/07 13:07:01;;;;;;;9.00;7.40;;;;;;;;;;5028959;28;20033;-58
2021/09/07 13:09:27;;;;;;;7.00;6.22;;;;;;;;;;5028920;28;20034;-57
2021/09/07 13:11:52;;;;;;;6.53;6.03;;;;;;;;;;5029599;28;20114;-58
2021/09/07 13:14:17;;;;;;;7.50;6.82;;;;;;;;;;5023421;28;20037;-61
2021/09/07 13:16:43;;;;;;;6.72;6.13;;;;;;;;;;5027763;28;20037;-57
2021/09/07 13:19:08;;;;;;;5.40;4.88;;;;;;;;;;5030426;28;20489;-57
2021/09/07 13:21:34;;;;;;;6.50;5.90;;;;;;;;;;5030385;28;20044;-57
2021/09/07 13:23:59;;;;;;;6.47;5.68;;;;;;;;;;5030650;28;20056;-58
2021/09/07 13:26:24;;;;;;;5.35;4.85;;;;;;;;;;5028118;28;20546;-58
2021/09/07 13:28:50;;;;;;;6.57;5.97;;;;;;;;;;5012707;28;20026;-57
2021/09/07 13:31:15;;;;;;;6.50;5.90;;;;;;;;;;5030829;28;20517;-58
2021/09/07 13:33:40;;;;;;;5.60;4.93;;;;;;;;;;5029426;28;20033;-58
2021/09/07 13:36:06;;;;;;;5.38;4.90;;;;;;;;;;5033201;28;20134;-58
2021/09/07 13:38:31;;;;;;;6.03;5.47;;;;;;;;;;5029717;28;20030;-58
2021/09/07 13:40:57;;;;;;;7.50;6.50;;;;;;;;;;5030364;28;20036;-58
2021/09/07 13:43:23;;;;;;;6.05;5.10;;;;;;;;;;5030025;28;20491;-58
2021/09/07 13:45:48;;;;;;;5.78;4.75;;;;;;;;;;5025120;28;20443;-57
2021/09/07 13:48:14;;;;;;;6.40;5.80;;;;;;;;;;5030323;28;20479;-57
2021/09/07 13:50:40;;;;;;;5.80;5.18;;;;;;;;;;5029858;28;20033;-57
2021/09/07 13:53:05;;;;;;;4.70;4.30;;;;;;;;;;5020301;28;20051;-58
2021/09/07 13:55:31;;;;;;;10.65;4.78;;;;;;;;;;5028875;28;20061;-57
2021/09/07 13:57:57;;;;;;;7.53;6.05;;;;;;;;;;5030006;28;20485;-57
2021/09/07 14:00:22;;;;;;;5.22;4.72;;;;;;;;;;5029803;28;20029;-58
2021/09/07 14:02:48;;;;;;;4.75;4.28;;;;;;;;;;5029012;28;20064;-58
2021/09/07 14:05:14;;;;;;;5.60;5.05;;;;;;;;;;5029781;28;20033;-57
2021/09/07 14:07:41;;;;;;;6.53;4.40;;;;;;;;;;5035325;28;20033;-57
2021/09/07 14:10:08;;;;;;;5.43;4.93;;;;;;;;;;5029815;28;20120;-57
2021/09/07 14:12:34;;;;;;;5.78;5.22;;;;;;;;;;5028957;28;20136;-57
2021/09/07 14:15:00;;;;;;;5.93;5.43;;;;;;;;;;5025328;28;20483;-57
2021/09/07 14:17:27;;;;;;;6.93;6.22;;;;;;;;;;5026427;28;20033;-58
2021/09/07 14:19:52;;;;;;;4.88;4.45;;;;;;;;;;5024875;28;20022;-58
2021/09/07 14:22:18;;;;;;;6.78;6.15;;;;;;;;;;5024253;28;20100;-58
2021/09/07 14:24:43;;;;;;;6.63;6.03;;;;;;;;;;5019946;28;20040;-58
2021/09/07 14:27:09;;;;;;;5.95;5.38;;;;;;;;;;5029048;28;20034;-58
2021/09/07 14:29:34;;;;;;;6.18;5.47;;;;;;;;;;5027153;28;20117;-58
2021/09/07 14:31:59;;;;;;;7.00;6.40;;;;;;;;;;5029528;28;20025;-58
2021/09/07 14:34:25;;;;;;;6.93;6.32;;;;;;;;;;5026014;28;20492;-58
2021/09/07 14:36:50;;;;;;;6.20;5.70;;;;;;;;;;5028370;28;20069;-58
2021/09/07 14:39:16;;;;;;;8.00;7.30;;;;;;;;;;5029220;28;20064;-58
2021/09/07 14:41:41;;;;;;;7.75;6.95;;;;;;;;;;5029337;28;20029;-58
2021/09/07 14:44:07;;;;;;;7.32;6.38;;;;;;;;;;5029271;28;20493;-58
2021/09/07 14:46:33;;;;;;;6.72;6.10;;;;;;;;;;5028655;28;20047;-58